createdAt,value
2022-11-01T00:01:08.391Z,99.90
2022-11-01T00:03:35.181Z,99.90
2022-11-01T00:06:02.060Z,99.90
2022-11-01T00:08:29.096Z,99.90
2022-11-01T00:11:07.047Z,99.90
2022-11-01T00:13:33.839Z,99.90
2022-11-01T00:16:00.655Z,99.90
2022-11-01T00:18:27.547Z,99.90
2022-11-01T00:20:55.679Z,99.90
2022-11-01T00:23:22.573Z,99.90
2022-11-01T00:25:49.481Z,99.90
2022-11-01T00:28:16.299Z,99.90
2022-11-01T00:30:43.102Z,99.90
2022-11-01T00:33:09.898Z,99.90
2022-11-01T00:35:39.618Z,99.90
2022-11-01T00:38:06.342Z,99.90
2022-11-01T00:40:58.718Z,99.90
2022-11-01T00:43:25.669Z,99.90
2022-11-01T00:45:52.506Z,99.90
2022-11-01T00:48:19.244Z,99.90
2022-11-01T00:50:46.006Z,99.90
2022-11-01T00:53:13.250Z,99.90
2022-11-01T00:55:40.820Z,99.90
2022-11-01T00:58:08.450Z,99.90
2022-11-01T01:00:35.945Z,99.90
2022-11-01T01:03:04.195Z,99.90
2022-11-01T01:05:32.205Z,99.90
2022-11-01T01:07:58.987Z,99.90
2022-11-01T01:10:25.862Z,99.90
2022-11-01T01:12:52.705Z,99.90
2022-11-01T01:15:19.738Z,99.90
2022-11-01T01:17:46.569Z,99.90
2022-11-01T01:20:14.254Z,99.90
2022-11-01T01:22:42.196Z,99.90
2022-11-01T01:25:10.535Z,99.90
2022-11-01T01:27:37.470Z,99.90
2022-11-01T01:30:07.660Z,99.90
2022-11-01T01:32:34.641Z,99.90
2022-11-01T01:35:01.789Z,99.90
2022-11-01T01:37:28.547Z,99.90
2022-11-01T01:39:55.546Z,99.90
2022-11-01T01:42:28.291Z,99.90
2022-11-01T01:44:55.127Z,99.90
2022-11-01T01:47:29.655Z,99.90
2022-11-01T01:50:07.383Z,99.90
2022-11-01T01:52:43.438Z,99.90
2022-11-01T01:55:12.729Z,99.90
2022-11-01T01:57:40.505Z,99.90
2022-11-01T02:00:08.570Z,99.90
2022-11-01T02:02:39.884Z,99.90
2022-11-01T02:05:24.044Z,99.90
2022-11-01T02:07:51.166Z,99.90
2022-11-01T02:10:18.545Z,99.90
2022-11-01T02:12:47.711Z,99.90
2022-11-01T02:15:17.109Z,99.90
2022-11-01T02:18:04.406Z,99.90
2022-11-01T02:21:01.978Z,99.90
2022-11-01T02:24:10.346Z,99.90
2022-11-01T02:26:52.945Z,99.90
2022-11-01T02:33:14.693Z,99.90
2022-11-01T02:35:59.358Z,99.90
2022-11-01T02:38:47.455Z,99.90
2022-11-01T02:41:55.626Z,99.90
2022-11-01T02:44:26.970Z,99.90
2022-11-01T02:47:01.809Z,99.90
2022-11-01T02:49:30.676Z,99.90
2022-11-01T02:51:58.646Z,99.90
2022-11-01T02:54:38.747Z,99.90
2022-11-01T02:57:23.918Z,99.90
2022-11-01T02:59:50.645Z,99.90
2022-11-01T03:02:39.334Z,99.90
2022-11-01T03:05:15.511Z,99.90
2022-11-01T03:07:47.623Z,99.90
2022-11-01T03:10:14.625Z,99.90
2022-11-01T03:13:08.230Z,99.90
2022-11-01T03:15:39.866Z,99.90
2022-11-01T03:18:21.584Z,99.90
2022-11-01T03:20:59.251Z,99.90
2022-11-01T03:23:37.408Z,99.90
2022-11-01T03:26:08.782Z,99.90
2022-11-01T03:31:30.104Z,99.90
2022-11-01T03:34:01.686Z,99.90
2022-11-01T03:36:34.054Z,99.90
2022-11-01T03:39:08.604Z,99.90
2022-11-01T03:41:41.422Z,99.90
2022-11-01T03:44:10.947Z,99.90
2022-11-01T03:46:37.881Z,99.90
2022-11-01T03:49:04.582Z,99.90
2022-11-01T03:51:31.606Z,99.90
2022-11-01T03:53:58.491Z,99.90
2022-11-01T03:56:25.350Z,99.90
2022-11-01T03:58:52.086Z,99.90
2022-11-01T04:01:18.962Z,99.90
2022-11-01T04:03:45.895Z,99.90
2022-11-01T04:06:12.672Z,99.90
2022-11-01T04:08:39.778Z,99.90
2022-11-01T04:11:06.649Z,99.90
2022-11-01T04:13:33.656Z,99.90
2022-11-01T04:16:19.288Z,99.90
2022-11-01T04:19:04.588Z,99.90
2022-11-01T04:21:32.110Z,99.90
2022-11-01T04:23:58.906Z,99.90
2022-11-01T04:26:26.204Z,99.90
2022-11-01T04:28:58.731Z,99.90
2022-11-01T04:31:26.620Z,99.90
2022-11-01T04:33:53.533Z,99.90
2022-11-01T04:36:20.433Z,99.90
2022-11-01T04:38:52.170Z,99.90
2022-11-01T04:41:19.819Z,99.90
2022-11-01T04:43:47.569Z,99.90
2022-11-01T04:46:14.537Z,99.90
2022-11-01T04:48:41.514Z,99.90
2022-11-01T04:51:09.349Z,99.90
2022-11-01T04:53:36.155Z,99.90
2022-11-01T04:56:04.773Z,99.90
2022-11-01T04:58:32.018Z,99.90
2022-11-01T05:00:58.783Z,99.90
2022-11-01T05:03:25.645Z,99.90
2022-11-01T05:05:52.378Z,99.90
2022-11-01T05:08:19.114Z,99.90
2022-11-01T05:10:45.858Z,99.90
2022-11-01T05:13:13.613Z,99.90
2022-11-01T05:15:53.557Z,99.90
2022-11-01T05:18:26.203Z,99.90
2022-11-01T05:20:52.925Z,99.90
2022-11-01T05:23:19.650Z,99.90
2022-11-01T05:25:46.379Z,99.90
2022-11-01T05:28:13.973Z,99.90
2022-11-01T05:30:42.260Z,99.90
2022-11-01T05:33:11.039Z,99.90
2022-11-01T05:35:37.950Z,99.90
2022-11-01T05:38:05.382Z,99.90
2022-11-01T05:40:32.860Z,99.90
2022-11-01T05:42:59.821Z,99.90
2022-11-01T05:45:26.981Z,99.90
2022-11-01T05:47:53.747Z,99.90
2022-11-01T05:50:20.553Z,99.90
2022-11-01T05:52:47.459Z,99.90
2022-11-01T05:55:14.287Z,99.90
2022-11-01T05:57:41.048Z,99.90
2022-11-01T06:00:08.432Z,99.90
2022-11-01T06:02:41.000Z,99.90
2022-11-01T06:05:08.722Z,99.90
2022-11-01T06:07:36.579Z,99.90
2022-11-01T06:10:04.791Z,99.90
2022-11-01T06:12:31.596Z,99.90
2022-11-01T06:14:58.359Z,99.90
2022-11-01T06:17:25.129Z,99.90
2022-11-01T06:19:51.886Z,99.90
2022-11-01T06:22:18.660Z,99.90
2022-11-01T06:24:45.371Z,99.90
2022-11-01T06:27:12.857Z,99.90
2022-11-01T06:29:39.734Z,99.90
2022-11-01T06:32:06.794Z,99.90
2022-11-01T06:34:33.766Z,99.90
2022-11-01T06:37:01.096Z,99.90
2022-11-01T06:39:28.122Z,99.90
2022-11-01T06:41:54.980Z,99.90
2022-11-01T06:44:22.533Z,99.90
2022-11-01T06:46:49.320Z,99.90
2022-11-01T06:49:18.901Z,99.90
2022-11-01T06:51:46.412Z,99.90
2022-11-01T06:54:13.270Z,99.90
2022-11-01T06:56:40.222Z,99.90
2022-11-01T06:59:08.246Z,99.90
2022-11-01T07:01:35.153Z,99.90
2022-11-01T07:04:02.012Z,99.90
2022-11-01T07:06:30.795Z,99.90
2022-11-01T07:08:59.395Z,99.90
2022-11-01T07:11:31.208Z,99.90
2022-11-01T07:13:59.354Z,99.90
2022-11-01T07:16:26.912Z,99.90
2022-11-01T07:18:53.945Z,99.90
2022-11-01T07:21:21.095Z,99.90
2022-11-01T07:23:47.926Z,99.90
2022-11-01T07:26:14.857Z,99.90
2022-11-01T07:28:41.753Z,99.90
2022-11-01T07:31:08.531Z,99.90
2022-11-01T07:33:35.356Z,99.90
2022-11-01T07:36:02.862Z,99.90
2022-11-01T07:38:29.618Z,99.90
2022-11-01T07:40:56.550Z,99.90
2022-11-01T07:43:23.473Z,99.90
2022-11-01T07:45:50.455Z,99.90
2022-11-01T07:48:18.839Z,99.90
2022-11-01T07:50:46.363Z,99.90
2022-11-01T07:53:16.382Z,99.90
2022-11-01T07:55:44.052Z,99.90
2022-11-01T07:58:12.194Z,99.90
2022-11-01T08:00:39.985Z,99.90
2022-11-01T08:03:09.019Z,99.90
2022-11-01T08:05:36.759Z,99.90
2022-11-01T08:08:04.155Z,99.90
2022-11-01T08:10:31.747Z,99.90
2022-11-01T08:13:22.810Z,99.90
2022-11-01T08:15:51.121Z,99.90
2022-11-01T08:18:18.864Z,99.90
2022-11-01T08:20:45.562Z,99.90
2022-11-01T08:23:12.688Z,99.90
2022-11-01T08:25:39.998Z,99.90
2022-11-01T08:28:09.665Z,99.90
2022-11-01T08:30:38.402Z,99.90
2022-11-01T08:33:05.497Z,99.90
2022-11-01T08:35:34.070Z,99.90
2022-11-01T08:38:03.252Z,99.90
2022-11-01T08:40:31.523Z,99.90
2022-11-01T08:42:59.007Z,99.90
2022-11-01T08:45:26.762Z,99.90
2022-11-01T08:48:04.988Z,99.90
2022-11-01T08:50:34.164Z,99.90
2022-11-01T08:53:12.465Z,99.90
2022-11-01T08:55:40.492Z,99.90
2022-11-01T08:58:08.331Z,99.90
2022-11-01T09:00:35.892Z,99.90
2022-11-01T09:03:03.009Z,99.90
2022-11-01T09:05:31.228Z,99.90
2022-11-01T09:07:59.377Z,99.90
2022-11-01T09:10:26.713Z,99.90
2022-11-01T09:12:53.473Z,99.90
2022-11-01T09:15:20.274Z,99.90
2022-11-01T09:17:47.021Z,99.90
2022-11-01T09:20:15.132Z,99.90
2022-11-01T09:22:41.973Z,99.90
2022-11-01T09:25:09.135Z,99.90
2022-11-01T09:27:35.861Z,99.90
2022-11-01T09:30:04.756Z,99.90
2022-11-01T09:32:31.580Z,99.90
2022-11-01T09:34:58.501Z,99.90
2022-11-01T09:37:25.263Z,99.90
2022-11-01T09:39:52.090Z,99.90
2022-11-01T09:42:24.698Z,99.90
2022-11-01T09:44:55.537Z,99.90
2022-11-01T09:47:25.375Z,99.90
2022-11-01T09:50:18.680Z,99.90
2022-11-01T09:52:45.564Z,99.90
2022-11-01T09:55:17.496Z,99.90
2022-11-01T09:57:48.790Z,99.90
2022-11-01T10:00:19.562Z,99.90
2022-11-01T10:03:17.120Z,99.90
2022-11-01T10:05:46.163Z,99.90
2022-11-01T10:08:34.000Z,99.90
2022-11-01T10:11:13.179Z,99.90
2022-11-01T10:13:58.572Z,99.90
2022-11-01T10:16:41.582Z,99.90
2022-11-01T10:19:21.734Z,99.90
2022-11-01T10:22:01.184Z,99.90
2022-11-01T10:24:40.587Z,99.90
2022-11-01T10:27:13.441Z,99.90
2022-11-01T10:30:03.815Z,99.90
2022-11-01T10:33:03.357Z,99.90
2022-11-01T10:35:40.527Z,99.90
2022-11-01T10:38:41.447Z,99.90
2022-11-01T10:41:39.017Z,99.90
2022-11-01T10:44:14.662Z,99.90
2022-11-01T10:46:47.182Z,99.90
2022-11-01T10:52:45.467Z,99.90
2022-11-01T10:55:30.390Z,99.90
2022-11-01T10:58:03.130Z,99.90
2022-11-01T11:00:32.517Z,95.70
2022-11-01T11:03:06.453Z,94.30
2022-11-01T11:05:34.147Z,92.80
2022-11-01T11:08:04.718Z,92.80
2022-11-01T11:10:32.163Z,91.80
2022-11-01T11:13:06.908Z,90.70
2022-11-01T11:15:43.225Z,90.10
2022-11-01T11:18:38.503Z,88.70
2022-11-01T11:21:12.524Z,89.70
2022-11-01T11:23:42.377Z,88.30
2022-11-01T11:26:16.816Z,87.30
2022-11-01T11:28:52.264Z,85.30
2022-11-01T11:31:26.884Z,83.80
2022-11-01T11:34:25.994Z,82.20
2022-11-01T11:36:55.002Z,82.50
2022-11-01T11:39:27.525Z,82.20
2022-11-01T11:41:54.685Z,81.50
2022-11-01T11:44:41.356Z,81.80
2022-11-01T11:47:26.751Z,81.50
2022-11-01T11:49:54.225Z,78.40
2022-11-01T11:52:42.208Z,78.00
2022-11-01T11:55:32.132Z,77.90
2022-11-01T11:57:59.284Z,76.80
2022-11-01T12:00:29.406Z,77.80
2022-11-01T12:02:56.332Z,78.00
2022-11-01T12:05:28.703Z,78.40
2022-11-01T12:07:57.857Z,78.40
2022-11-01T12:10:39.606Z,77.10
2022-11-01T12:13:28.046Z,77.60
2022-11-01T12:16:13.623Z,76.60
2022-11-01T12:18:48.996Z,76.50
2022-11-01T12:21:20.174Z,75.90
2022-11-01T12:23:50.141Z,74.10
2022-11-01T12:26:20.809Z,73.00
2022-11-01T12:29:33.336Z,72.00
2022-11-01T12:32:16.603Z,71.20
2022-11-01T12:34:46.223Z,70.80
2022-11-01T12:37:18.770Z,70.90
2022-11-01T12:40:06.281Z,70.30
2022-11-01T12:42:38.516Z,70.90
2022-11-01T12:45:29.933Z,70.90
2022-11-01T12:48:05.428Z,70.10
2022-11-01T12:50:46.774Z,69.90
2022-11-01T12:53:18.725Z,70.00
2022-11-01T12:55:45.562Z,69.70
2022-11-01T12:58:16.952Z,69.50
2022-11-01T13:01:05.484Z,69.80
2022-11-01T13:03:44.366Z,68.80
2022-11-01T13:06:16.911Z,69.00
2022-11-01T13:09:01.548Z,68.40
2022-11-01T13:11:50.442Z,67.90
2022-11-01T13:14:38.812Z,67.20
2022-11-01T13:17:28.483Z,66.60
2022-11-01T13:20:10.289Z,65.80
2022-11-01T13:22:45.197Z,65.80
2022-11-01T13:25:36.895Z,65.70
2022-11-01T13:28:14.249Z,64.50
2022-11-01T13:30:50.728Z,64.00
2022-11-01T13:33:30.115Z,64.00
2022-11-01T13:36:11.412Z,64.30
2022-11-01T13:39:04.184Z,64.40
2022-11-01T13:41:46.192Z,63.90
2022-11-01T13:44:19.315Z,63.80
2022-11-01T13:46:57.674Z,63.60
2022-11-01T13:50:07.314Z,62.20
2022-11-01T13:52:40.842Z,61.80
2022-11-01T13:55:42.049Z,60.40
2022-11-01T13:58:20.205Z,60.20
2022-11-01T14:00:50.064Z,60.60
2022-11-01T14:03:18.419Z,60.80
2022-11-01T14:05:46.368Z,60.80
2022-11-01T14:08:28.042Z,60.50
2022-11-01T14:10:55.520Z,60.30
2022-11-01T14:13:45.807Z,60.00
2022-11-01T14:16:15.761Z,59.50
2022-11-01T14:19:02.530Z,59.90
2022-11-01T14:21:32.275Z,59.50
2022-11-01T14:24:01.586Z,59.50
2022-11-01T14:26:48.219Z,59.50
2022-11-01T14:29:15.247Z,59.20
2022-11-01T14:31:45.887Z,58.20
2022-11-01T14:34:24.363Z,58.10
2022-11-01T14:36:53.612Z,58.30
2022-11-01T14:39:29.512Z,57.60
2022-11-01T14:41:57.440Z,57.30
2022-11-01T14:44:32.616Z,57.30
2022-11-01T14:47:05.083Z,56.90
2022-11-01T14:49:44.107Z,56.80
2022-11-01T14:52:13.540Z,56.50
2022-11-01T14:54:48.615Z,55.90
2022-11-01T14:57:35.070Z,55.40
2022-11-01T15:00:18.554Z,55.10
2022-11-01T15:02:45.455Z,54.90
2022-11-01T15:05:14.973Z,54.50
2022-11-01T15:07:42.486Z,54.30
2022-11-01T15:10:12.513Z,54.60
2022-11-01T15:12:50.820Z,54.00
2022-11-01T15:15:25.891Z,53.80
2022-11-01T15:17:58.352Z,54.00
2022-11-01T15:20:28.897Z,54.00
2022-11-01T15:22:57.736Z,54.00
2022-11-01T15:25:26.608Z,54.20
2022-11-01T15:27:55.731Z,54.20
2022-11-01T15:30:28.772Z,54.00
2022-11-01T15:33:27.823Z,54.10
2022-11-01T15:35:57.929Z,54.40
2022-11-01T15:38:25.111Z,54.30
2022-11-01T15:40:53.086Z,54.70
2022-11-01T15:43:24.926Z,54.90
2022-11-01T15:46:01.763Z,55.10
2022-11-01T15:48:35.454Z,54.80
2022-11-01T15:51:06.103Z,54.30
2022-11-01T15:53:36.368Z,54.40
2022-11-01T15:56:40.615Z,54.30
2022-11-01T15:59:15.827Z,54.30
2022-11-01T16:01:42.782Z,54.40
2022-11-01T16:04:14.100Z,54.40
2022-11-01T16:06:51.255Z,54.50
2022-11-01T16:09:44.412Z,54.40
2022-11-01T16:12:21.498Z,54.50
2022-11-01T16:15:00.732Z,54.60
2022-11-01T16:17:39.953Z,54.80
2022-11-01T16:20:25.785Z,54.70
2022-11-01T16:22:53.322Z,54.60
2022-11-01T16:25:23.925Z,54.10
2022-11-01T16:27:56.181Z,54.00
2022-11-01T16:30:43.032Z,54.20
2022-11-01T16:33:18.505Z,54.10
2022-11-01T16:35:47.160Z,54.30
2022-11-01T16:41:39.707Z,54.70
2022-11-01T16:44:14.226Z,55.20
2022-11-01T16:46:41.260Z,55.10
2022-11-01T16:49:25.886Z,55.50
2022-11-01T16:51:56.254Z,55.80
2022-11-01T16:54:27.139Z,56.00
2022-11-01T16:56:55.517Z,55.90
2022-11-01T16:59:35.587Z,56.20
2022-11-01T17:02:21.847Z,56.30
2022-11-01T17:04:52.360Z,56.60
2022-11-01T17:07:19.443Z,56.70
2022-11-01T17:09:46.630Z,57.00
2022-11-01T17:12:13.457Z,57.40
2022-11-01T17:17:14.481Z,57.90
2022-11-01T17:19:44.515Z,58.50
2022-11-01T17:22:19.551Z,58.80
2022-11-01T17:24:46.599Z,59.00
2022-11-01T17:27:14.449Z,59.10
2022-11-01T17:29:41.368Z,59.20
2022-11-01T17:32:09.699Z,59.40
2022-11-01T17:34:37.649Z,59.60
2022-11-01T17:37:05.022Z,60.00
2022-11-01T17:39:31.872Z,60.00
2022-11-01T17:41:59.355Z,61.20
2022-11-01T17:44:26.478Z,60.10
2022-11-01T17:46:53.265Z,60.10
2022-11-01T17:49:23.517Z,60.40
2022-11-01T17:51:54.742Z,60.50
2022-11-01T17:54:23.121Z,60.70
2022-11-01T17:56:51.153Z,60.90
2022-11-01T17:59:18.271Z,61.10
2022-11-01T18:01:45.261Z,61.30
2022-11-01T18:04:12.278Z,61.60
2022-11-01T18:06:40.601Z,61.70
2022-11-01T18:09:25.961Z,61.70
2022-11-01T18:12:34.328Z,61.80
2022-11-01T18:15:22.273Z,62.00
2022-11-01T18:18:21.630Z,62.00
2022-11-01T18:21:13.066Z,62.20
2022-11-01T18:23:46.096Z,62.40
2022-11-01T18:26:20.054Z,62.70
2022-11-01T18:28:46.885Z,62.80
2022-11-01T18:31:23.611Z,63.00
2022-11-01T18:34:12.747Z,63.40
2022-11-01T18:37:02.703Z,63.70
2022-11-01T18:39:38.464Z,64.20
2022-11-01T18:42:09.660Z,64.60
2022-11-01T18:44:37.800Z,65.10
2022-11-01T18:47:12.245Z,65.60
2022-11-01T18:49:39.111Z,65.80
2022-11-01T18:52:17.678Z,66.30
2022-11-01T18:54:56.097Z,67.70
2022-11-01T18:57:24.497Z,66.90
2022-11-01T18:59:53.246Z,67.20
2022-11-01T19:02:28.112Z,67.60
2022-11-01T19:05:17.724Z,67.70
2022-11-01T19:08:10.177Z,67.80
2022-11-01T19:10:38.215Z,67.80
2022-11-01T19:13:12.699Z,67.90
2022-11-01T19:15:40.459Z,67.90
2022-11-01T19:18:18.972Z,68.00
2022-11-01T19:21:11.573Z,68.10
2022-11-01T19:23:39.474Z,67.70
2022-11-01T19:26:21.136Z,67.30
2022-11-01T19:28:52.053Z,67.30
2022-11-01T19:31:32.191Z,66.70
2022-11-01T19:34:20.079Z,66.70
2022-11-01T19:36:52.518Z,66.50
2022-11-01T19:39:23.659Z,66.70
2022-11-01T19:41:53.000Z,66.90
2022-11-01T19:44:24.552Z,67.20
2022-11-01T19:47:22.887Z,67.40
2022-11-01T19:49:49.615Z,67.60
2022-11-01T19:52:34.069Z,67.90
2022-11-01T19:55:00.884Z,67.70
2022-11-01T19:57:37.508Z,67.70
2022-11-01T20:00:20.024Z,67.50
2022-11-01T20:02:48.647Z,67.60
2022-11-01T20:05:33.033Z,67.60
2022-11-01T20:08:14.481Z,67.50
2022-11-01T20:10:41.326Z,67.70
2022-11-01T20:13:08.031Z,67.80
2022-11-01T20:15:34.832Z,67.90
2022-11-01T20:18:03.841Z,67.90
2022-11-01T20:20:32.387Z,68.10
2022-11-01T20:23:20.442Z,68.00
2022-11-01T20:25:46.018Z,68.20
2022-11-01T20:28:12.896Z,68.30
2022-11-01T20:30:39.673Z,68.20
2022-11-01T20:33:06.806Z,68.30
2022-11-01T20:35:33.793Z,68.40
2022-11-01T20:38:00.542Z,68.50
2022-11-01T20:40:27.486Z,68.40
2022-11-01T20:42:54.685Z,69.40
2022-11-01T20:45:21.536Z,68.40
2022-11-01T20:47:48.522Z,68.10
2022-11-01T20:50:16.667Z,68.10
2022-11-01T20:52:43.934Z,68.10
2022-11-01T20:55:12.418Z,68.00
2022-11-01T20:57:39.418Z,67.90
2022-11-01T21:00:09.774Z,67.70
2022-11-01T21:02:36.976Z,67.60
2022-11-01T21:05:22.707Z,67.50
2022-11-01T21:07:52.742Z,67.50
2022-11-01T21:10:31.183Z,67.50
2022-11-01T21:13:00.300Z,67.30
2022-11-01T21:15:36.646Z,67.30
2022-11-01T21:18:09.573Z,67.10
2022-11-01T21:20:39.736Z,67.10
2022-11-01T21:23:39.618Z,67.00
2022-11-01T21:26:28.679Z,67.00
2022-11-01T21:29:01.803Z,67.00
2022-11-01T21:31:39.246Z,67.00
2022-11-01T21:34:11.971Z,67.10
2022-11-01T21:36:46.673Z,67.20
2022-11-01T21:39:20.808Z,67.30
2022-11-01T21:41:53.904Z,67.40
2022-11-01T21:44:29.338Z,67.60
2022-11-01T21:47:24.154Z,67.70
2022-11-01T21:49:51.245Z,67.90
2022-11-01T21:52:21.433Z,67.90
2022-11-01T21:54:49.273Z,68.20
2022-11-01T21:57:16.902Z,68.30
2022-11-01T21:59:43.997Z,68.50
2022-11-01T22:02:12.727Z,68.70
2022-11-01T22:04:39.827Z,68.90
2022-11-01T22:07:08.613Z,70.20
2022-11-01T22:09:35.960Z,69.10
2022-11-01T22:12:02.918Z,69.20
2022-11-01T22:14:29.796Z,69.40
2022-11-01T22:16:56.908Z,69.60
2022-11-01T22:19:24.012Z,69.70
2022-11-01T22:21:50.763Z,69.80
2022-11-01T22:24:17.580Z,70.00
2022-11-01T22:26:44.436Z,70.00
2022-11-01T22:29:11.359Z,70.20
2022-11-01T22:31:38.125Z,70.40
2022-11-01T22:34:04.913Z,70.70
2022-11-01T22:36:35.401Z,71.00
2022-11-01T22:39:12.296Z,71.30
2022-11-01T22:41:40.655Z,71.60
2022-11-01T22:44:13.884Z,71.90
2022-11-01T22:46:58.028Z,73.30
2022-11-01T22:49:27.213Z,72.40
2022-11-01T22:52:01.778Z,72.70
2022-11-01T22:54:47.539Z,73.30
2022-11-01T22:57:15.756Z,73.90
2022-11-01T22:59:46.212Z,74.20
2022-11-01T23:02:33.539Z,74.50
2022-11-01T23:05:03.453Z,74.80
2022-11-01T23:07:47.617Z,75.20
2022-11-01T23:10:32.685Z,75.50
2022-11-01T23:13:30.062Z,75.80
2022-11-01T23:15:59.747Z,76.10
2022-11-01T23:18:31.799Z,76.50
2022-11-01T23:21:05.089Z,76.70
2022-11-01T23:23:32.063Z,77.10
2022-11-01T23:26:02.568Z,77.30
2022-11-01T23:28:30.444Z,77.60
2022-11-01T23:30:57.598Z,77.90
2022-11-01T23:33:28.887Z,78.10
2022-11-01T23:35:59.227Z,78.50
2022-11-01T23:38:40.770Z,78.80
2022-11-01T23:41:27.476Z,78.80
2022-11-01T23:43:57.423Z,80.30
2022-11-01T23:46:26.085Z,79.30
2022-11-01T23:49:11.134Z,79.60
2022-11-01T23:51:37.880Z,79.90
2022-11-01T23:54:06.584Z,79.80
2022-11-01T23:56:33.377Z,79.80
2022-11-01T23:59:03.824Z,80.30
